sensor_id;sensor_type;location;lat;lon;timestamp;P1;durP1;ratioP1;P2;durP2;ratioP2
65033;SDS011;51601;51.356;12.458;2023-04-25T00:02:28;9.18;;;3.80;;
65033;SDS011;51601;51.356;12.458;2023-04-25T00:06:55;9.67;;;4.30;;
65033;SDS011;51601;51.356;12.458;2023-04-25T00:11:19;10.10;;;4.32;;
65033;SDS011;51601;51.356;12.458;2023-04-25T00:15:45;7.40;;;3.55;;
65033;SDS011;51601;51.356;12.458;2023-04-25T00:20:10;9.63;;;3.80;;
65033;SDS011;51601;51.356;12.458;2023-04-25T00:24:37;7.97;;;3.33;;
65033;SDS011;51601;51.356;12.458;2023-04-25T00:29:01;8.15;;;3.70;;
65033;SDS011;51601;51.356;12.458;2023-04-25T00:33:25;9.60;;;3.85;;
65033;SDS011;51601;51.356;12.458;2023-04-25T00:37:49;8.80;;;3.93;;
65033;SDS011;51601;51.356;12.458;2023-04-25T00:42:15;8.60;;;3.80;;
65033;SDS011;51601;51.356;12.458;2023-04-25T00:46:42;9.02;;;3.60;;
65033;SDS011;51601;51.356;12.458;2023-04-25T00:51:06;8.73;;;3.77;;
65033;SDS011;51601;51.356;12.458;2023-04-25T00:55:30;9.05;;;4.13;;
65033;SDS011;51601;51.356;12.458;2023-04-25T00:59:58;10.07;;;4.15;;
65033;SDS011;51601;51.356;12.458;2023-04-25T01:04:23;8.68;;;3.88;;
65033;SDS011;51601;51.356;12.458;2023-04-25T01:08:48;10.43;;;4.40;;
65033;SDS011;51601;51.356;12.458;2023-04-25T01:13:12;11.23;;;4.40;;
65033;SDS011;51601;51.356;12.458;2023-04-25T01:17:37;8.18;;;4.07;;
65033;SDS011;51601;51.356;12.458;2023-04-25T01:22:04;9.60;;;4.77;;
65033;SDS011;51601;51.356;12.458;2023-04-25T01:26:28;11.02;;;4.45;;
65033;SDS011;51601;51.356;12.458;2023-04-25T01:30:53;11.07;;;5.50;;
65033;SDS011;51601;51.356;12.458;2023-04-25T01:35:18;9.93;;;4.90;;
65033;SDS011;51601;51.356;12.458;2023-04-25T01:39:43;9.75;;;5.05;;
65033;SDS011;51601;51.356;12.458;2023-04-25T01:44:08;10.00;;;4.90;;
65033;SDS011;51601;51.356;12.458;2023-04-25T01:48:32;10.35;;;4.40;;
65033;SDS011;51601;51.356;12.458;2023-04-25T01:52:56;8.33;;;4.13;;
65033;SDS011;51601;51.356;12.458;2023-04-25T01:57:22;10.18;;;4.32;;
65033;SDS011;51601;51.356;12.458;2023-04-25T02:01:47;9.48;;;4.00;;
65033;SDS011;51601;51.356;12.458;2023-04-25T02:06:19;8.70;;;3.73;;
65033;SDS011;51601;51.356;12.458;2023-04-25T02:10:46;7.50;;;3.33;;
65033;SDS011;51601;51.356;12.458;2023-04-25T02:15:14;8.43;;;3.80;;
65033;SDS011;51601;51.356;12.458;2023-04-25T02:19:52;10.60;;;4.57;;
65033;SDS011;51601;51.356;12.458;2023-04-25T02:24:16;9.00;;;3.70;;
65033;SDS011;51601;51.356;12.458;2023-04-25T02:28:40;9.27;;;3.58;;
65033;SDS011;51601;51.356;12.458;2023-04-25T02:33:06;9.38;;;3.88;;
65033;SDS011;51601;51.356;12.458;2023-04-25T02:37:31;10.60;;;4.30;;
65033;SDS011;51601;51.356;12.458;2023-04-25T02:41:55;9.75;;;4.00;;
65033;SDS011;51601;51.356;12.458;2023-04-25T02:46:19;10.05;;;4.20;;
65033;SDS011;51601;51.356;12.458;2023-04-25T02:51:00;8.37;;;3.97;;
65033;SDS011;51601;51.356;12.458;2023-04-25T02:55:24;10.52;;;4.40;;
65033;SDS011;51601;51.356;12.458;2023-04-25T02:59:51;10.60;;;4.68;;
65033;SDS011;51601;51.356;12.458;2023-04-25T03:04:15;11.53;;;4.93;;
65033;SDS011;51601;51.356;12.458;2023-04-25T03:08:43;11.75;;;4.70;;
65033;SDS011;51601;51.356;12.458;2023-04-25T03:13:07;9.70;;;4.38;;
65033;SDS011;51601;51.356;12.458;2023-04-25T03:17:32;9.60;;;4.10;;
65033;SDS011;51601;51.356;12.458;2023-04-25T03:21:56;9.87;;;4.13;;
65033;SDS011;51601;51.356;12.458;2023-04-25T03:26:22;10.95;;;4.40;;
65033;SDS011;51601;51.356;12.458;2023-04-25T03:30:46;10.20;;;4.28;;
65033;SDS011;51601;51.356;12.458;2023-04-25T03:35:10;9.97;;;4.50;;
65033;SDS011;51601;51.356;12.458;2023-04-25T03:39:36;10.32;;;4.45;;
65033;SDS011;51601;51.356;12.458;2023-04-25T03:44:03;7.88;;;3.80;;
65033;SDS011;51601;51.356;12.458;2023-04-25T03:48:27;10.27;;;4.27;;
65033;SDS011;51601;51.356;12.458;2023-04-25T03:52:47;9.43;;;4.18;;
65033;SDS011;51601;51.356;12.458;2023-04-25T03:57:11;11.15;;;4.20;;
65033;SDS011;51601;51.356;12.458;2023-04-25T04:01:39;11.20;;;4.43;;
65033;SDS011;51601;51.356;12.458;2023-04-25T04:06:03;9.67;;;3.90;;
65033;SDS011;51601;51.356;12.458;2023-04-25T04:10:33;12.35;;;4.45;;
65033;SDS011;51601;51.356;12.458;2023-04-25T04:14:57;11.20;;;4.05;;
65033;SDS011;51601;51.356;12.458;2023-04-25T04:19:23;11.40;;;4.10;;
65033;SDS011;51601;51.356;12.458;2023-04-25T04:24:00;11.25;;;4.00;;
65033;SDS011;51601;51.356;12.458;2023-04-25T04:28:33;11.18;;;4.53;;
65033;SDS011;51601;51.356;12.458;2023-04-25T04:33:10;11.17;;;4.00;;
65033;SDS011;51601;51.356;12.458;2023-04-25T04:37:37;9.10;;;4.07;;
65033;SDS011;51601;51.356;12.458;2023-04-25T04:42:03;10.65;;;4.35;;
65033;SDS011;51601;51.356;12.458;2023-04-25T04:46:59;8.82;;;3.83;;
65033;SDS011;51601;51.356;12.458;2023-04-25T04:51:35;9.40;;;4.17;;
65033;SDS011;51601;51.356;12.458;2023-04-25T04:56:11;10.43;;;4.28;;
65033;SDS011;51601;51.356;12.458;2023-04-25T05:00:53;9.95;;;4.00;;
65033;SDS011;51601;51.356;12.458;2023-04-25T05:05:30;9.53;;;4.10;;
65033;SDS011;51601;51.356;12.458;2023-04-25T05:10:26;11.18;;;3.95;;
65033;SDS011;51601;51.356;12.458;2023-04-25T05:14:51;9.85;;;3.70;;
65033;SDS011;51601;51.356;12.458;2023-04-25T05:19:34;9.73;;;4.37;;
65033;SDS011;51601;51.356;12.458;2023-04-25T05:24:17;8.63;;;4.30;;
65033;SDS011;51601;51.356;12.458;2023-04-25T05:28:59;8.27;;;4.05;;
65033;SDS011;51601;51.356;12.458;2023-04-25T05:33:43;10.95;;;4.30;;
65033;SDS011;51601;51.356;12.458;2023-04-25T05:38:08;8.83;;;4.13;;
65033;SDS011;51601;51.356;12.458;2023-04-25T05:42:55;10.90;;;4.28;;
65033;SDS011;51601;51.356;12.458;2023-04-25T05:47:48;7.97;;;4.10;;
65033;SDS011;51601;51.356;12.458;2023-04-25T05:52:18;9.33;;;3.97;;
65033;SDS011;51601;51.356;12.458;2023-04-25T05:56:50;9.95;;;4.38;;
65033;SDS011;51601;51.356;12.458;2023-04-25T06:01:14;8.38;;;3.90;;
65033;SDS011;51601;51.356;12.458;2023-04-25T06:05:39;9.47;;;4.43;;
65033;SDS011;51601;51.356;12.458;2023-04-25T06:10:06;9.68;;;4.30;;
65033;SDS011;51601;51.356;12.458;2023-04-25T06:14:32;9.10;;;4.53;;
65033;SDS011;51601;51.356;12.458;2023-04-25T06:18:57;10.77;;;4.05;;
65033;SDS011;51601;51.356;12.458;2023-04-25T06:23:21;10.37;;;3.87;;
65033;SDS011;51601;51.356;12.458;2023-04-25T06:27:58;7.60;;;3.42;;
65033;SDS011;51601;51.356;12.458;2023-04-25T06:32:22;8.90;;;3.90;;
65033;SDS011;51601;51.356;12.458;2023-04-25T06:36:50;8.77;;;3.80;;
65033;SDS011;51601;51.356;12.458;2023-04-25T06:41:15;10.57;;;3.80;;
65033;SDS011;51601;51.356;12.458;2023-04-25T06:45:41;7.65;;;3.78;;
65033;SDS011;51601;51.356;12.458;2023-04-25T06:50:09;8.17;;;3.80;;
65033;SDS011;51601;51.356;12.458;2023-04-25T06:54:34;9.75;;;3.80;;
65033;SDS011;51601;51.356;12.458;2023-04-25T06:59:11;8.85;;;3.58;;
65033;SDS011;51601;51.356;12.458;2023-04-25T07:03:39;8.52;;;3.67;;
65033;SDS011;51601;51.356;12.458;2023-04-25T07:08:09;9.47;;;3.60;;
65033;SDS011;51601;51.356;12.458;2023-04-25T07:12:33;9.02;;;3.67;;
65033;SDS011;51601;51.356;12.458;2023-04-25T07:16:57;7.90;;;3.42;;
65033;SDS011;51601;51.356;12.458;2023-04-25T07:21:25;8.23;;;3.90;;
65033;SDS011;51601;51.356;12.458;2023-04-25T07:25:50;8.77;;;3.38;;
65033;SDS011;51601;51.356;12.458;2023-04-25T07:30:17;9.25;;;3.75;;
65033;SDS011;51601;51.356;12.458;2023-04-25T07:34:41;10.93;;;3.60;;
65033;SDS011;51601;51.356;12.458;2023-04-25T07:39:06;8.50;;;3.65;;
65033;SDS011;51601;51.356;12.458;2023-04-25T07:43:32;10.10;;;3.83;;
65033;SDS011;51601;51.356;12.458;2023-04-25T07:47:58;10.88;;;3.95;;
65033;SDS011;51601;51.356;12.458;2023-04-25T07:52:24;8.47;;;4.00;;
65033;SDS011;51601;51.356;12.458;2023-04-25T07:56:58;10.98;;;4.43;;
65033;SDS011;51601;51.356;12.458;2023-04-25T08:01:25;11.73;;;4.25;;
65033;SDS011;51601;51.356;12.458;2023-04-25T08:05:53;11.57;;;3.97;;
65033;SDS011;51601;51.356;12.458;2023-04-25T08:10:20;7.93;;;2.40;;
65033;SDS011;51601;51.356;12.458;2023-04-25T08:14:46;7.75;;;2.45;;
65033;SDS011;51601;51.356;12.458;2023-04-25T08:19:11;7.10;;;2.17;;
65033;SDS011;51601;51.356;12.458;2023-04-25T08:23:35;10.13;;;2.33;;
65033;SDS011;51601;51.356;12.458;2023-04-25T08:28:05;8.68;;;2.40;;
65033;SDS011;51601;51.356;12.458;2023-04-25T08:32:31;5.90;;;2.00;;
65033;SDS011;51601;51.356;12.458;2023-04-25T08:37:16;7.37;;;1.90;;
65033;SDS011;51601;51.356;12.458;2023-04-25T08:41:49;6.88;;;2.28;;
65033;SDS011;51601;51.356;12.458;2023-04-25T08:46:15;7.15;;;2.40;;
65033;SDS011;51601;51.356;12.458;2023-04-25T08:51:09;10.07;;;2.37;;
65033;SDS011;51601;51.356;12.458;2023-04-25T08:55:39;9.73;;;2.55;;
65033;SDS011;51601;51.356;12.458;2023-04-25T09:00:06;10.15;;;2.38;;
65033;SDS011;51601;51.356;12.458;2023-04-25T09:04:34;8.87;;;2.30;;
65033;SDS011;51601;51.356;12.458;2023-04-25T09:09:02;7.88;;;2.33;;
65033;SDS011;51601;51.356;12.458;2023-04-25T09:13:28;9.20;;;2.70;;
65033;SDS011;51601;51.356;12.458;2023-04-25T09:18:21;7.18;;;2.20;;
65033;SDS011;51601;51.356;12.458;2023-04-25T09:23:02;8.37;;;2.43;;
65033;SDS011;51601;51.356;12.458;2023-04-25T09:27:33;10.05;;;2.53;;
65033;SDS011;51601;51.356;12.458;2023-04-25T09:32:12;7.88;;;2.10;;
65033;SDS011;51601;51.356;12.458;2023-04-25T09:36:39;7.20;;;2.47;;
65033;SDS011;51601;51.356;12.458;2023-04-25T09:41:22;8.38;;;2.40;;
65033;SDS011;51601;51.356;12.458;2023-04-25T09:45:53;9.07;;;2.55;;
65033;SDS011;51601;51.356;12.458;2023-04-25T09:50:22;8.77;;;2.70;;
65033;SDS011;51601;51.356;12.458;2023-04-25T09:54:56;10.35;;;2.95;;
65033;SDS011;51601;51.356;12.458;2023-04-25T09:59:26;8.73;;;3.03;;
65033;SDS011;51601;51.356;12.458;2023-04-25T10:03:55;9.40;;;2.72;;
65033;SDS011;51601;51.356;12.458;2023-04-25T10:08:51;10.43;;;2.87;;
65033;SDS011;51601;51.356;12.458;2023-04-25T10:13:18;10.52;;;3.05;;
65033;SDS011;51601;51.356;12.458;2023-04-25T10:17:43;12.10;;;3.35;;
65033;SDS011;51601;51.356;12.458;2023-04-25T10:22:11;10.17;;;3.97;;
65033;SDS011;51601;51.356;12.458;2023-04-25T10:26:38;10.98;;;3.30;;
65033;SDS011;51601;51.356;12.458;2023-04-25T10:31:03;11.70;;;4.00;;
65033;SDS011;51601;51.356;12.458;2023-04-25T10:35:31;10.57;;;3.50;;
65033;SDS011;51601;51.356;12.458;2023-04-25T10:39:58;10.32;;;3.78;;
65033;SDS011;51601;51.356;12.458;2023-04-25T10:44:33;10.15;;;3.80;;
65033;SDS011;51601;51.356;12.458;2023-04-25T10:49:00;10.65;;;4.10;;
65033;SDS011;51601;51.356;12.458;2023-04-25T10:53:25;10.33;;;3.80;;
65033;SDS011;51601;51.356;12.458;2023-04-25T10:57:58;11.48;;;3.95;;
65033;SDS011;51601;51.356;12.458;2023-04-25T11:02:24;8.20;;;3.60;;
65033;SDS011;51601;51.356;12.458;2023-04-25T11:06:55;12.13;;;4.10;;
65033;SDS011;51601;51.356;12.458;2023-04-25T11:11:28;12.02;;;3.80;;
65033;SDS011;51601;51.356;12.458;2023-04-25T11:15:54;11.43;;;3.75;;
65033;SDS011;51601;51.356;12.458;2023-04-25T11:20:34;14.30;;;4.23;;
65033;SDS011;51601;51.356;12.458;2023-04-25T11:24:58;10.48;;;3.70;;
65033;SDS011;51601;51.356;12.458;2023-04-25T11:29:28;12.20;;;4.40;;
65033;SDS011;51601;51.356;12.458;2023-04-25T11:33:56;10.98;;;4.18;;
65033;SDS011;51601;51.356;12.458;2023-04-25T11:38:20;11.37;;;3.70;;
65033;SDS011;51601;51.356;12.458;2023-04-25T11:42:47;10.30;;;3.60;;
65033;SDS011;51601;51.356;12.458;2023-04-25T11:47:11;9.27;;;3.55;;
65033;SDS011;51601;51.356;12.458;2023-04-25T11:51:39;11.40;;;3.77;;
65033;SDS011;51601;51.356;12.458;2023-04-25T11:56:08;10.88;;;3.08;;
65033;SDS011;51601;51.356;12.458;2023-04-25T12:00:33;10.00;;;2.88;;
65033;SDS011;51601;51.356;12.458;2023-04-25T12:04:58;7.30;;;2.30;;
65033;SDS011;51601;51.356;12.458;2023-04-25T12:09:44;9.65;;;2.85;;
65033;SDS011;51601;51.356;12.458;2023-04-25T12:14:21;9.60;;;2.30;;
65033;SDS011;51601;51.356;12.458;2023-04-25T12:18:51;6.82;;;2.30;;
65033;SDS011;51601;51.356;12.458;2023-04-25T12:23:15;8.50;;;2.57;;
65033;SDS011;51601;51.356;12.458;2023-04-25T12:27:41;9.55;;;2.70;;
65033;SDS011;51601;51.356;12.458;2023-04-25T12:32:06;7.57;;;2.30;;
65033;SDS011;51601;51.356;12.458;2023-04-25T12:36:30;10.50;;;2.73;;
65033;SDS011;51601;51.356;12.458;2023-04-25T12:40:54;9.98;;;2.50;;
65033;SDS011;51601;51.356;12.458;2023-04-25T12:45:20;7.75;;;2.65;;
65033;SDS011;51601;51.356;12.458;2023-04-25T12:49:45;8.07;;;2.40;;
65033;SDS011;51601;51.356;12.458;2023-04-25T12:54:09;9.82;;;2.20;;
65033;SDS011;51601;51.356;12.458;2023-04-25T12:58:33;6.90;;;2.35;;
65033;SDS011;51601;51.356;12.458;2023-04-25T13:02:58;5.65;;;1.95;;
65033;SDS011;51601;51.356;12.458;2023-04-25T13:07:23;6.50;;;1.83;;
65033;SDS011;51601;51.356;12.458;2023-04-25T13:11:47;7.30;;;1.90;;
65033;SDS011;51601;51.356;12.458;2023-04-25T13:16:11;4.38;;;1.50;;
65033;SDS011;51601;51.356;12.458;2023-04-25T13:20:37;4.53;;;1.50;;
65033;SDS011;51601;51.356;12.458;2023-04-25T13:25:01;4.90;;;1.60;;
65033;SDS011;51601;51.356;12.458;2023-04-25T13:29:26;6.97;;;1.73;;
65033;SDS011;51601;51.356;12.458;2023-04-25T13:33:50;6.50;;;1.70;;
65033;SDS011;51601;51.356;12.458;2023-04-25T13:38:16;4.28;;;1.65;;
65033;SDS011;51601;51.356;12.458;2023-04-25T13:42:40;6.35;;;1.90;;
65033;SDS011;51601;51.356;12.458;2023-04-25T13:47:06;7.00;;;1.75;;
65033;SDS011;51601;51.356;12.458;2023-04-25T13:51:30;9.17;;;2.47;;
65033;SDS011;51601;51.356;12.458;2023-04-25T13:55:56;8.68;;;1.80;;
65033;SDS011;51601;51.356;12.458;2023-04-25T14:00:20;6.88;;;1.80;;
65033;SDS011;51601;51.356;12.458;2023-04-25T14:04:44;6.97;;;2.10;;
65033;SDS011;51601;51.356;12.458;2023-04-25T14:09:08;8.45;;;1.80;;
65033;SDS011;51601;51.356;12.458;2023-04-25T14:13:36;6.55;;;1.90;;
65033;SDS011;51601;51.356;12.458;2023-04-25T14:18:00;6.77;;;1.80;;
65033;SDS011;51601;51.356;12.458;2023-04-25T14:22:25;6.30;;;1.70;;
65033;SDS011;51601;51.356;12.458;2023-04-25T14:26:50;6.35;;;1.85;;
65033;SDS011;51601;51.356;12.458;2023-04-25T14:31:15;4.80;;;1.73;;
65033;SDS011;51601;51.356;12.458;2023-04-25T14:35:39;6.30;;;1.83;;
65033;SDS011;51601;51.356;12.458;2023-04-25T14:40:04;6.07;;;2.00;;
65033;SDS011;51601;51.356;12.458;2023-04-25T14:44:30;4.82;;;1.60;;
65033;SDS011;51601;51.356;12.458;2023-04-25T14:48:55;5.77;;;1.80;;
65033;SDS011;51601;51.356;12.458;2023-04-25T14:53:19;5.82;;;1.67;;
65033;SDS011;51601;51.356;12.458;2023-04-25T14:57:43;6.43;;;2.28;;
65033;SDS011;51601;51.356;12.458;2023-04-25T15:02:07;5.90;;;2.00;;
65033;SDS011;51601;51.356;12.458;2023-04-25T15:06:34;5.40;;;1.70;;
65033;SDS011;51601;51.356;12.458;2023-04-25T15:10:58;7.38;;;1.92;;
65033;SDS011;51601;51.356;12.458;2023-04-25T15:15:22;6.05;;;1.75;;
65033;SDS011;51601;51.356;12.458;2023-04-25T15:19:48;6.63;;;1.70;;
65033;SDS011;51601;51.356;12.458;2023-04-25T15:24:20;8.73;;;2.10;;
65033;SDS011;51601;51.356;12.458;2023-04-25T15:28:44;5.03;;;1.80;;
65033;SDS011;51601;51.356;12.458;2023-04-25T15:33:11;7.37;;;2.20;;
65033;SDS011;51601;51.356;12.458;2023-04-25T15:37:37;5.43;;;1.85;;
65033;SDS011;51601;51.356;12.458;2023-04-25T15:42:02;6.65;;;1.77;;
65033;SDS011;51601;51.356;12.458;2023-04-25T15:46:27;5.60;;;2.00;;
65033;SDS011;51601;51.356;12.458;2023-04-25T15:50:52;5.32;;;1.70;;
65033;SDS011;51601;51.356;12.458;2023-04-25T15:55:16;6.53;;;1.90;;
65033;SDS011;51601;51.356;12.458;2023-04-25T15:59:43;7.40;;;1.80;;
65033;SDS011;51601;51.356;12.458;2023-04-25T16:04:07;5.90;;;1.80;;
65033;SDS011;51601;51.356;12.458;2023-04-25T16:08:31;6.85;;;1.73;;
65033;SDS011;51601;51.356;12.458;2023-04-25T16:12:57;11.60;;;1.83;;
65033;SDS011;51601;51.356;12.458;2023-04-25T16:17:22;9.20;;;2.17;;
65033;SDS011;51601;51.356;12.458;2023-04-25T16:21:46;5.10;;;1.65;;
65033;SDS011;51601;51.356;12.458;2023-04-25T16:26:10;7.03;;;1.85;;
65033;SDS011;51601;51.356;12.458;2023-04-25T16:30:34;5.37;;;1.83;;
65033;SDS011;51601;51.356;12.458;2023-04-25T16:35:00;6.53;;;1.75;;
65033;SDS011;51601;51.356;12.458;2023-04-25T16:39:24;7.13;;;1.92;;
65033;SDS011;51601;51.356;12.458;2023-04-25T16:43:48;6.57;;;1.85;;
65033;SDS011;51601;51.356;12.458;2023-04-25T16:48:12;6.20;;;1.80;;
65033;SDS011;51601;51.356;12.458;2023-04-25T16:52:39;5.90;;;1.85;;
65033;SDS011;51601;51.356;12.458;2023-04-25T16:57:05;6.28;;;1.98;;
65033;SDS011;51601;51.356;12.458;2023-04-25T17:01:32;5.67;;;1.90;;
65033;SDS011;51601;51.356;12.458;2023-04-25T17:05:56;6.65;;;1.83;;
65033;SDS011;51601;51.356;12.458;2023-04-25T17:10:23;5.72;;;1.60;;
65033;SDS011;51601;51.356;12.458;2023-04-25T17:14:48;7.40;;;1.70;;
65033;SDS011;51601;51.356;12.458;2023-04-25T17:19:18;5.93;;;1.60;;
65033;SDS011;51601;51.356;12.458;2023-04-25T17:23:43;5.78;;;2.15;;
65033;SDS011;51601;51.356;12.458;2023-04-25T17:28:09;5.15;;;1.75;;
65033;SDS011;51601;51.356;12.458;2023-04-25T17:32:34;6.80;;;1.63;;
65033;SDS011;51601;51.356;12.458;2023-04-25T17:36:58;6.47;;;1.35;;
65033;SDS011;51601;51.356;12.458;2023-04-25T17:41:22;5.15;;;1.50;;
65033;SDS011;51601;51.356;12.458;2023-04-25T17:45:50;5.10;;;1.57;;
65033;SDS011;51601;51.356;12.458;2023-04-25T17:50:24;8.45;;;1.70;;
65033;SDS011;51601;51.356;12.458;2023-04-25T17:54:48;7.13;;;1.80;;
65033;SDS011;51601;51.356;12.458;2023-04-25T17:59:12;5.50;;;1.53;;
65033;SDS011;51601;51.356;12.458;2023-04-25T18:03:38;5.03;;;1.33;;
65033;SDS011;51601;51.356;12.458;2023-04-25T18:08:06;5.40;;;1.58;;
65033;SDS011;51601;51.356;12.458;2023-04-25T18:12:30;4.90;;;1.58;;
65033;SDS011;51601;51.356;12.458;2023-04-25T18:16:55;5.63;;;1.50;;
65033;SDS011;51601;51.356;12.458;2023-04-25T18:21:21;6.30;;;1.70;;
65033;SDS011;51601;51.356;12.458;2023-04-25T18:25:45;4.47;;;1.40;;
65033;SDS011;51601;51.356;12.458;2023-04-25T18:30:13;4.90;;;1.47;;
65033;SDS011;51601;51.356;12.458;2023-04-25T18:34:36;4.95;;;1.65;;
65033;SDS011;51601;51.356;12.458;2023-04-25T18:39:04;5.30;;;1.60;;
65033;SDS011;51601;51.356;12.458;2023-04-25T18:43:43;5.00;;;1.30;;
65033;SDS011;51601;51.356;12.458;2023-04-25T18:48:07;6.07;;;1.55;;
65033;SDS011;51601;51.356;12.458;2023-04-25T18:52:32;4.95;;;1.77;;
65033;SDS011;51601;51.356;12.458;2023-04-25T18:56:59;6.25;;;1.48;;
65033;SDS011;51601;51.356;12.458;2023-04-25T19:01:24;5.27;;;1.30;;
65033;SDS011;51601;51.356;12.458;2023-04-25T19:05:49;5.28;;;1.35;;
65033;SDS011;51601;51.356;12.458;2023-04-25T19:10:13;4.43;;;1.35;;
65033;SDS011;51601;51.356;12.458;2023-04-25T19:14:39;4.77;;;1.50;;
65033;SDS011;51601;51.356;12.458;2023-04-25T19:19:04;4.90;;;1.42;;
65033;SDS011;51601;51.356;12.458;2023-04-25T19:23:29;6.60;;;1.52;;
65033;SDS011;51601;51.356;12.458;2023-04-25T19:27:53;4.33;;;1.30;;
65033;SDS011;51601;51.356;12.458;2023-04-25T19:32:19;4.40;;;1.50;;
65033;SDS011;51601;51.356;12.458;2023-04-25T19:36:43;3.78;;;1.30;;
65033;SDS011;51601;51.356;12.458;2023-04-25T19:41:08;4.95;;;1.33;;
65033;SDS011;51601;51.356;12.458;2023-04-25T19:45:32;4.43;;;1.43;;
65033;SDS011;51601;51.356;12.458;2023-04-25T19:49:59;4.85;;;1.40;;
65033;SDS011;51601;51.356;12.458;2023-04-25T19:54:23;4.00;;;1.50;;
65033;SDS011;51601;51.356;12.458;2023-04-25T19:58:47;5.07;;;1.57;;
65033;SDS011;51601;51.356;12.458;2023-04-25T20:03:12;7.05;;;1.70;;
65033;SDS011;51601;51.356;12.458;2023-04-25T20:07:41;5.55;;;1.67;;
65033;SDS011;51601;51.356;12.458;2023-04-25T20:12:06;5.30;;;1.60;;
65033;SDS011;51601;51.356;12.458;2023-04-25T20:16:32;4.63;;;1.70;;
65033;SDS011;51601;51.356;12.458;2023-04-25T20:20:57;5.47;;;1.58;;
65033;SDS011;51601;51.356;12.458;2023-04-25T20:25:24;4.78;;;1.65;;
65033;SDS011;51601;51.356;12.458;2023-04-25T20:29:48;6.90;;;1.90;;
65033;SDS011;51601;51.356;12.458;2023-04-25T20:34:16;6.15;;;1.73;;
65033;SDS011;51601;51.356;12.458;2023-04-25T20:38:44;5.78;;;1.63;;
65033;SDS011;51601;51.356;12.458;2023-04-25T20:43:10;6.57;;;1.70;;
65033;SDS011;51601;51.356;12.458;2023-04-25T20:47:35;5.80;;;1.83;;
65033;SDS011;51601;51.356;12.458;2023-04-25T20:51:59;5.05;;;1.65;;
65033;SDS011;51601;51.356;12.458;2023-04-25T20:56:24;5.87;;;1.50;;
65033;SDS011;51601;51.356;12.458;2023-04-25T21:00:53;4.97;;;1.70;;
65033;SDS011;51601;51.356;12.458;2023-04-25T21:05:18;5.22;;;1.70;;
65033;SDS011;51601;51.356;12.458;2023-04-25T21:09:43;6.18;;;1.65;;
65033;SDS011;51601;51.356;12.458;2023-04-25T21:14:08;4.87;;;1.50;;
65033;SDS011;51601;51.356;12.458;2023-04-25T21:18:34;5.75;;;1.63;;
65033;SDS011;51601;51.356;12.458;2023-04-25T21:22:57;8.57;;;1.80;;
65033;SDS011;51601;51.356;12.458;2023-04-25T21:27:22;6.30;;;1.80;;
65033;SDS011;51601;51.356;12.458;2023-04-25T21:31:46;5.60;;;1.70;;
65033;SDS011;51601;51.356;12.458;2023-04-25T21:36:14;4.78;;;1.70;;
65033;SDS011;51601;51.356;12.458;2023-04-25T21:40:38;6.67;;;2.03;;
65033;SDS011;51601;51.356;12.458;2023-04-25T21:45:03;5.15;;;1.90;;
65033;SDS011;51601;51.356;12.458;2023-04-25T21:49:29;5.05;;;1.85;;
65033;SDS011;51601;51.356;12.458;2023-04-25T21:53:58;5.85;;;1.70;;
65033;SDS011;51601;51.356;12.458;2023-04-25T21:58:26;6.03;;;1.80;;
65033;SDS011;51601;51.356;12.458;2023-04-25T22:02:50;5.50;;;1.95;;
65033;SDS011;51601;51.356;12.458;2023-04-25T22:07:15;6.28;;;2.10;;
65033;SDS011;51601;51.356;12.458;2023-04-25T22:11:41;7.03;;;2.30;;
65033;SDS011;51601;51.356;12.458;2023-04-25T22:16:05;5.43;;;2.10;;
65033;SDS011;51601;51.356;12.458;2023-04-25T22:20:33;6.43;;;1.83;;
65033;SDS011;51601;51.356;12.458;2023-04-25T22:24:57;6.43;;;2.33;;
65033;SDS011;51601;51.356;12.458;2023-04-25T22:29:23;6.75;;;1.98;;
65033;SDS011;51601;51.356;12.458;2023-04-25T22:33:48;5.63;;;2.00;;
65033;SDS011;51601;51.356;12.458;2023-04-25T22:38:12;6.28;;;1.90;;
65033;SDS011;51601;51.356;12.458;2023-04-25T22:42:37;4.77;;;1.80;;
65033;SDS011;51601;51.356;12.458;2023-04-25T22:47:03;7.13;;;2.28;;
65033;SDS011;51601;51.356;12.458;2023-04-25T22:51:27;5.45;;;1.90;;
65033;SDS011;51601;51.356;12.458;2023-04-25T22:55:53;6.37;;;2.20;;
65033;SDS011;51601;51.356;12.458;2023-04-25T23:00:18;5.70;;;2.10;;
65033;SDS011;51601;51.356;12.458;2023-04-25T23:04:44;5.80;;;2.30;;
65033;SDS011;51601;51.356;12.458;2023-04-25T23:09:08;7.03;;;2.23;;
65033;SDS011;51601;51.356;12.458;2023-04-25T23:13:33;6.60;;;2.03;;
65033;SDS011;51601;51.356;12.458;2023-04-25T23:17:58;6.20;;;2.10;;
65033;SDS011;51601;51.356;12.458;2023-04-25T23:22:23;7.18;;;2.42;;
65033;SDS011;51601;51.356;12.458;2023-04-25T23:26:47;7.63;;;2.73;;
65033;SDS011;51601;51.356;12.458;2023-04-25T23:31:11;6.45;;;2.22;;
65033;SDS011;51601;51.356;12.458;2023-04-25T23:35:35;8.15;;;2.00;;
65033;SDS011;51601;51.356;12.458;2023-04-25T23:40:01;6.43;;;2.13;;
65033;SDS011;51601;51.356;12.458;2023-04-25T23:44:29;7.03;;;2.10;;
65033;SDS011;51601;51.356;12.458;2023-04-25T23:48:53;6.55;;;2.10;;
65033;SDS011;51601;51.356;12.458;2023-04-25T23:53:17;6.23;;;2.10;;
65033;SDS011;51601;51.356;12.458;2023-04-25T23:57:42;5.10;;;1.90;;
